Flight Track Log - Related Links

Times and Time Zones

All times are in EST time to prevent confusion due to time zone crossing. See the AWE2056 flight status page for this flight to view local times or setup timezone preferences in your user account.

Time Position Orientation Groundspeed Altitude Reporting Facility
EST Latitude Longitude Course Direction KTS MPH feet Rate Location/Type
Thu 04:23:18 PM 35.1908 -80.9331 104° East 175 201 1,900  Level Atlanta Center
Thu 04:23:43 PM 35.1719 -80.9339 182° South 169 194 2,600 2,118 Climbing Atlanta Center
Thu 04:24:43 PM 35.1189 -80.8953 149° Southeast 233 268 4,900 2,182 Climbing Atlanta Center
Thu 04:25:44 PM 35.0919 -80.8225 114° Southeast 273 314 7,000 1,967 Climbing Atlanta Center
Thu 04:26:45 PM 35.1036 -80.7181 82° East 323 372 8,900 4,528 Climbing Atlanta Center
Thu 04:27:00 PM 35.0796 -80.5619 109° East  Level FlightAware Approximate
Thu 04:27:30 PM 35.1103 -80.6492 83° East 313 360 15,000  Level Atlanta Center
Thu 04:28:00 PM 35.0580 -80.4734 104° East  Level FlightAware Approximate
Thu 04:28:30 PM 35.0819 -80.5361 107° East 327 376 9,800  Level Atlanta Center
Thu 04:31:00 PM 35.0081 -80.2325 106° East 411 473 13,200 1,457 Climbing Washington Center
Thu 04:32:00 PM 34.9739 -80.0936 107° East 430 495 14,900 915 Climbing Washington Center
Thu 04:32:58 PM 34.9975 -79.9606 78° East 397 457 15,000 -50 Climbing Washington Center
Thu 04:33:59 PM 35.0761 -79.8633 45° Northeast 384 442 14,800 -590 Descending Washington Center
Thu 04:35:00 PM 35.1567 -79.7711 43° Northeast 384 442 13,800 -958 Descending Washington Center
Thu 04:35:58 PM 35.2328 -79.6808 44° Northeast 384 442 12,900 -988 Descending Washington Center
Thu 04:36:25 PM 35.2678 -79.6369 46° Northeast 385 443 12,400 -1,029 Descending Washington Center
Thu 04:37:08 PM 35.3219 -79.5758 43° Northeast 380 437 11,700 -894 Descending Washington Center
Thu 04:37:59 PM 35.3825 -79.5078 42° Northeast 366 421 11,000 -700 Descending Washington Center
Thu 04:38:08 PM 35.3956 -79.4956 37° Northeast 346 398 11,000  Level Washington Center
Thu 04:39:00 PM 35.4497 -79.4294 45° Northeast 334 384 11,000 -98 Level Washington Center
Thu 04:39:09 PM 35.4606 -79.4197 36° Northeast 318 366 10,900 -1,655 Descending Washington Center
Thu 04:39:58 PM 35.5206 -79.3664 36° Northeast 321 369 9,400 -1,770 Descending Washington Center
Thu 04:40:10 PM 35.5294 -79.3489 58° Northeast 331 381 9,100 -2,066 Descending Washington Center
Thu 04:40:59 PM 35.5692 -79.2844 53° Northeast 313 360 7,300 -2,262 Descending Washington Center
Thu 04:41:11 PM 35.5825 -79.2594 57° Northeast 324 373 6,800 -1,574 Descending Washington Center
Thu 04:42:00 PM 35.6156 -79.1972 57° Northeast 309 356 5,700 -1,869 Descending Washington Center
Thu 04:42:12 PM 35.6289 -79.1722 57° Northeast 277 319 4,900 -2,276 Descending Washington Center
Thu 04:42:58 PM 35.6619 -79.1097 57° Northeast 277 319 3,500 -1,672 Descending Washington Center
Thu 04:43:13 PM 35.6708 -79.0975 48° Northeast 259 298 3,200 -500 Descending Washington Center
Thu 04:43:58 PM 35.6953 -79.0472 59° Northeast 264 304 3,000 -200 Descending Washington Center
Thu 04:44:13 PM 35.7064 -79.0222 61° Northeast 252 290 3,000  Level Washington Center
Thu 04:44:59 PM 35.7325 -78.9797 53° Northeast 246 283 3,000  Level Washington Center
Thu 04:45:14 PM 35.7478 -78.9625 42° Northeast 222 255 3,000  Level Washington Center
Thu 04:46:14 PM 35.7844 -78.9131 48° Northeast 191 220 3,000 -614 Level Washington Center
Thu 04:47:21 PM 35.8278 -78.8608 44° Northeast 182 209 1,700 -984 Descending Washington Center
Thu 04:48:16 PM 35.8514 -78.8286 48° Northeast 138 159 1,000 -764 Descending Washington Center

Login

Don't have an account? Register now (free) for customized features, flight alerts, and more!